createdAt,value
2023-03-26T00:01:36.832Z,12.60
2023-03-26T00:04:39.305Z,12.56
2023-03-26T00:07:42.465Z,12.53
2023-03-26T00:10:44.786Z,12.55
2023-03-26T00:13:47.736Z,12.57
2023-03-26T00:16:50.217Z,12.62
2023-03-26T00:19:53.671Z,12.57
2023-03-26T00:22:56.431Z,12.50
2023-03-26T00:25:58.938Z,12.51
2023-03-26T00:29:03.383Z,12.45
2023-03-26T00:32:06.239Z,12.38
2023-03-26T00:35:09.005Z,12.34
2023-03-26T00:38:11.294Z,12.32
2023-03-26T00:41:23.153Z,12.32
2023-03-26T00:44:26.066Z,12.28
2023-03-26T00:47:29.389Z,12.18
2023-03-26T00:50:31.675Z,12.18
2023-03-26T00:53:33.934Z,12.14
2023-03-26T00:56:37.049Z,12.05
2023-03-26T00:59:39.610Z,12.02
2023-03-26T01:02:43.573Z,12.02
2023-03-26T01:05:52.990Z,11.93
2023-03-26T01:09:00.137Z,11.88
2023-03-26T01:12:05.221Z,11.83
2023-03-26T01:15:08.362Z,11.79
2023-03-26T01:18:14.147Z,11.77
2023-03-26T01:21:22.802Z,11.75
2023-03-26T01:24:25.235Z,11.73
2023-03-26T01:27:46.768Z,11.79
2023-03-26T01:31:01.462Z,11.87
2023-03-26T01:34:16.198Z,11.91
2023-03-26T01:37:46.881Z,11.92
2023-03-26T01:41:10.835Z,11.97
2023-03-26T01:44:28.543Z,11.98
2023-03-26T01:47:31.440Z,12.00
2023-03-26T01:50:33.801Z,12.05
2023-03-26T01:53:39.549Z,12.07
2023-03-26T01:56:57.080Z,12.08
2023-03-26T02:00:27.514Z,12.11
2023-03-26T02:03:37.599Z,12.13
2023-03-26T02:06:45.986Z,12.15
2023-03-26T02:09:52.713Z,12.18
2023-03-26T02:12:55.470Z,12.19
2023-03-26T02:16:02.269Z,12.20
2023-03-26T02:19:04.671Z,12.19
2023-03-26T02:22:11.014Z,12.14
2023-03-26T02:25:19.167Z,12.16
2023-03-26T02:28:22.588Z,12.12
2023-03-26T02:31:30.327Z,12.07
2023-03-26T02:34:32.713Z,11.99
2023-03-26T02:37:35.016Z,11.95
2023-03-26T02:40:45.391Z,11.96
2023-03-26T02:43:47.737Z,11.99
2023-03-26T02:46:52.872Z,11.98
2023-03-26T02:50:16.420Z,11.94
2023-03-26T02:53:43.753Z,11.90
2023-03-26T02:57:04.045Z,11.82
2023-03-26T03:00:26.624Z,11.70
2023-03-26T03:03:37.985Z,11.62
2023-03-26T03:07:02.508Z,11.54
2023-03-26T03:10:08.720Z,11.47
2023-03-26T03:13:30.880Z,11.33
2023-03-26T03:16:33.484Z,11.30
2023-03-26T03:19:41.844Z,11.23
2023-03-26T03:22:44.487Z,11.20
2023-03-26T03:25:47.209Z,11.11
2023-03-26T03:28:49.933Z,11.03
2023-03-26T03:31:52.839Z,11.00
2023-03-26T03:35:19.201Z,11.02
2023-03-26T03:38:25.304Z,10.98
2023-03-26T03:41:29.706Z,10.95
2023-03-26T03:44:32.173Z,10.99
2023-03-26T03:47:35.383Z,11.03
2023-03-26T03:50:38.301Z,11.09
2023-03-26T03:54:01.956Z,11.13
2023-03-26T03:57:36.609Z,11.11
2023-03-26T04:00:44.900Z,11.10
2023-03-26T04:04:05.696Z,11.05
2023-03-26T04:07:22.721Z,10.96
2023-03-26T04:10:47.795Z,10.85
2023-03-26T04:14:16.118Z,10.76
2023-03-26T04:17:32.387Z,10.65
2023-03-26T04:20:35.599Z,10.56
2023-03-26T04:23:38.928Z,10.56
2023-03-26T04:26:51.663Z,10.47
2023-03-26T04:29:59.924Z,10.31
2023-03-26T04:33:04.274Z,10.14
2023-03-26T04:36:10.302Z,10.07
2023-03-26T04:39:13.322Z,10.05
2023-03-26T04:42:41.760Z,10.07
2023-03-26T04:45:54.605Z,10.13
2023-03-26T04:49:00.679Z,10.20
2023-03-26T04:52:03.021Z,10.27
2023-03-26T04:55:42.280Z,10.31
2023-03-26T04:58:56.978Z,10.36
2023-03-26T05:02:02.104Z,10.51
2023-03-26T05:05:09.252Z,10.74
2023-03-26T05:08:12.004Z,10.97
2023-03-26T05:11:14.366Z,11.19
2023-03-26T05:14:16.939Z,11.49
2023-03-26T05:17:21.435Z,11.80
2023-03-26T05:20:26.444Z,12.14
2023-03-26T05:23:28.686Z,12.32
2023-03-26T05:26:51.964Z,12.30
2023-03-26T05:30:02.229Z,12.15
2023-03-26T05:33:06.734Z,12.09
2023-03-26T05:36:19.552Z,12.02
2023-03-26T05:39:26.975Z,12.76
2023-03-26T05:42:41.333Z,13.30
2023-03-26T05:46:07.757Z,12.77
2023-03-26T05:49:10.306Z,14.69
2023-03-26T05:52:15.277Z,16.11
2023-03-26T05:55:40.736Z,16.37
2023-03-26T05:59:01.530Z,16.48
2023-03-26T06:02:23.754Z,14.71
2023-03-26T06:05:44.435Z,14.54
2023-03-26T06:09:06.794Z,14.57
2023-03-26T06:12:10.364Z,14.77
2023-03-26T06:15:14.129Z,14.74
2023-03-26T06:18:23.110Z,14.52
2023-03-26T06:21:42.490Z,13.88
2023-03-26T06:24:53.765Z,13.62
2023-03-26T06:28:14.533Z,13.56
2023-03-26T06:31:51.710Z,13.55
2023-03-26T06:34:57.333Z,13.41
2023-03-26T06:37:59.852Z,13.55
2023-03-26T06:41:06.837Z,13.88
2023-03-26T06:44:29.314Z,20.89
2023-03-26T06:47:51.877Z,28.11
2023-03-26T06:51:13.037Z,30.62
2023-03-26T06:54:33.675Z,31.58
2023-03-26T06:57:54.161Z,30.53
2023-03-26T07:01:15.545Z,25.21
2023-03-26T07:04:36.660Z,27.86
2023-03-26T07:07:57.648Z,27.47
2023-03-26T07:11:11.901Z,27.00
2023-03-26T07:14:46.433Z,30.28
2023-03-26T07:18:07.180Z,28.13
2023-03-26T07:21:12.412Z,24.60
2023-03-26T07:24:15.505Z,25.07
2023-03-26T07:27:39.341Z,24.64
2023-03-26T07:30:53.662Z,24.94
2023-03-26T07:34:54.619Z,23.08
2023-03-26T07:38:22.994Z,21.70
2023-03-26T07:42:14.070Z,24.93
2023-03-26T07:45:54.711Z,24.67
2023-03-26T07:49:01.831Z,24.79
2023-03-26T07:52:23.106Z,23.52
2023-03-26T07:56:10.235Z,22.10
2023-03-26T07:59:47.308Z,21.34
2023-03-26T08:03:16.880Z,20.69
2023-03-26T08:06:39.569Z,20.18
2023-03-26T08:10:15.021Z,18.51
2023-03-26T08:14:18.942Z,18.26
2023-03-26T08:17:33.154Z,18.29
2023-03-26T08:20:54.353Z,18.09
2023-03-26T08:24:13.678Z,17.71
2023-03-26T08:27:34.582Z,17.59
2023-03-26T08:30:37.283Z,17.12
2023-03-26T08:33:41.250Z,17.14
2023-03-26T08:36:44.576Z,17.10
2023-03-26T08:39:46.850Z,17.20
2023-03-26T08:42:55.573Z,17.11
2023-03-26T08:46:31.374Z,17.18
2023-03-26T08:49:39.209Z,17.33
2023-03-26T08:52:59.825Z,17.11
2023-03-26T08:56:44.341Z,18.13
2023-03-26T09:00:22.033Z,18.94
2023-03-26T09:03:45.392Z,18.91
2023-03-26T09:06:58.135Z,19.00
2023-03-26T09:10:31.383Z,19.14
2023-03-26T09:13:42.252Z,19.12
2023-03-26T09:16:56.585Z,19.16
2023-03-26T09:20:13.477Z,20.20
2023-03-26T09:23:49.714Z,20.66
2023-03-26T09:26:55.089Z,20.95
2023-03-26T09:30:19.276Z,21.00
2023-03-26T09:33:33.848Z,21.01
2023-03-26T09:37:14.720Z,20.41
2023-03-26T09:40:18.942Z,20.30
2023-03-26T09:43:48.858Z,20.35
2023-03-26T09:47:12.910Z,20.16
2023-03-26T09:50:34.103Z,19.81
2023-03-26T09:54:01.925Z,19.66
2023-03-26T09:57:13.578Z,19.88
2023-03-26T10:00:21.669Z,19.84
2023-03-26T10:03:38.160Z,19.66
2023-03-26T10:07:17.595Z,19.70
2023-03-26T10:10:50.263Z,19.56
2023-03-26T10:14:05.655Z,19.23
2023-03-26T10:17:49.323Z,18.87
2023-03-26T10:21:08.351Z,18.63
2023-03-26T10:24:36.518Z,18.29
2023-03-26T10:28:03.366Z,18.04
2023-03-26T10:31:36.243Z,17.64
2023-03-26T10:34:46.909Z,17.25
2023-03-26T10:38:13.545Z,16.81
2023-03-26T10:41:53.890Z,16.59
2023-03-26T10:45:14.752Z,16.66
2023-03-26T10:48:45.352Z,16.80
2023-03-26T10:51:54.930Z,17.02
2023-03-26T10:55:08.628Z,17.04
2023-03-26T10:58:22.074Z,17.02
2023-03-26T11:01:31.520Z,17.11
2023-03-26T11:04:48.553Z,17.11
2023-03-26T11:07:56.815Z,17.12
2023-03-26T11:11:08.910Z,17.08
2023-03-26T11:14:33.852Z,17.02
2023-03-26T11:17:43.391Z,16.95
2023-03-26T11:20:53.677Z,16.99
2023-03-26T11:24:25.972Z,17.19
2023-03-26T11:27:44.470Z,17.36
2023-03-26T11:30:56.465Z,17.39
2023-03-26T11:34:05.782Z,17.32
2023-03-26T11:38:02.368Z,17.25
2023-03-26T11:41:11.445Z,17.38
2023-03-26T11:44:26.955Z,17.45
2023-03-26T11:47:33.971Z,17.48
2023-03-26T11:50:42.053Z,17.56
2023-03-26T11:53:46.877Z,17.54
2023-03-26T11:57:19.837Z,17.41
2023-03-26T12:00:27.528Z,17.33
2023-03-26T12:03:30.459Z,17.29
2023-03-26T12:06:33.007Z,17.26
2023-03-26T12:09:35.370Z,17.28
2023-03-26T12:12:41.391Z,17.34
2023-03-26T12:15:44.285Z,17.48
2023-03-26T12:19:08.244Z,17.65
2023-03-26T12:22:37.313Z,17.68
2023-03-26T12:25:40.183Z,17.64
2023-03-26T12:28:48.240Z,17.70
2023-03-26T12:31:57.391Z,17.81
2023-03-26T12:35:06.096Z,17.95
2023-03-26T12:38:17.341Z,17.88
2023-03-26T12:43:51.643Z,17.82
2023-03-26T12:44:59.253Z,17.87
2023-03-26T12:48:05.048Z,17.79
2023-03-26T12:51:38.209Z,17.58
2023-03-26T12:55:11.830Z,17.54
2023-03-26T12:58:17.655Z,17.39
2023-03-26T13:01:54.586Z,17.51
2023-03-26T13:05:05.676Z,17.18
2023-03-26T13:09:05.060Z,17.09
2023-03-26T13:12:30.954Z,17.39
2023-03-26T13:15:37.532Z,17.29
2023-03-26T13:18:58.927Z,17.45
2023-03-26T13:22:36.886Z,17.44
2023-03-26T13:25:53.313Z,17.33
2023-03-26T13:29:01.490Z,17.16
2023-03-26T13:32:22.167Z,17.14
2023-03-26T13:35:33.910Z,17.25
2023-03-26T13:39:04.962Z,17.49
2023-03-26T13:42:39.799Z,17.54
2023-03-26T13:46:05.425Z,17.60
2023-03-26T13:49:15.639Z,17.59
2023-03-26T13:52:26.482Z,17.50
2023-03-26T13:55:31.944Z,17.32
2023-03-26T13:58:48.820Z,17.39
2023-03-26T14:01:57.439Z,17.49
2023-03-26T14:05:09.468Z,17.54
2023-03-26T14:08:38.392Z,17.63
2023-03-26T14:11:57.891Z,17.78
2023-03-26T14:15:14.043Z,17.78
2023-03-26T14:18:33.823Z,17.70
2023-03-26T14:22:07.067Z,17.87
2023-03-26T14:25:40.029Z,17.90
2023-03-26T14:29:07.630Z,17.78
2023-03-26T14:32:29.685Z,17.60
2023-03-26T14:36:04.361Z,17.40
2023-03-26T14:39:30.597Z,17.18
2023-03-26T14:42:43.325Z,17.16
2023-03-26T14:46:14.235Z,17.18
2023-03-26T14:49:54.625Z,17.22
2023-03-26T14:53:01.145Z,17.14
2023-03-26T14:56:15.734Z,17.23
2023-03-26T14:59:52.034Z,17.30
2023-03-26T15:03:09.244Z,17.25
2023-03-26T15:06:33.215Z,17.28
2023-03-26T15:10:09.254Z,17.14
2023-03-26T15:13:40.743Z,17.12
2023-03-26T15:17:03.323Z,17.08
2023-03-26T15:20:05.642Z,17.20
2023-03-26T15:23:32.489Z,17.18
2023-03-26T15:26:53.109Z,17.18
2023-03-26T15:30:10.437Z,17.01
2023-03-26T15:33:34.313Z,16.98
2023-03-26T15:36:58.888Z,17.05
2023-03-26T15:40:22.519Z,17.03
2023-03-26T15:43:29.989Z,17.02
2023-03-26T15:46:38.354Z,16.89
2023-03-26T15:49:43.780Z,16.84
2023-03-26T15:52:53.806Z,16.75
2023-03-26T15:56:16.063Z,16.77
2023-03-26T15:59:37.122Z,16.61
2023-03-26T16:03:10.352Z,16.63
2023-03-26T16:06:21.896Z,16.58
2023-03-26T16:09:39.347Z,16.52
2023-03-26T16:12:56.005Z,16.55
2023-03-26T16:16:04.204Z,16.44
2023-03-26T16:19:21.907Z,16.33
2023-03-26T16:22:43.367Z,16.33
2023-03-26T16:26:12.253Z,16.27
2023-03-26T16:29:14.618Z,16.22
2023-03-26T16:32:28.620Z,16.18
2023-03-26T16:36:02.074Z,16.08
2023-03-26T16:39:04.928Z,15.96
2023-03-26T16:42:17.924Z,15.97
2023-03-26T16:45:29.442Z,15.95
2023-03-26T16:48:37.637Z,15.86
2023-03-26T16:51:39.830Z,15.83
2023-03-26T16:54:52.654Z,15.83
2023-03-26T16:58:05.635Z,15.62
2023-03-26T17:01:27.256Z,15.70
2023-03-26T17:04:29.409Z,15.61
2023-03-26T17:07:43.603Z,15.73
2023-03-26T17:11:22.365Z,15.73
2023-03-26T17:14:33.489Z,15.65
2023-03-26T17:17:51.125Z,15.47
2023-03-26T17:21:09.710Z,15.48
2023-03-26T17:24:27.470Z,15.54
2023-03-26T17:28:20.356Z,15.56
2023-03-26T17:31:23.707Z,15.44
2023-03-26T17:34:37.992Z,15.40
2023-03-26T17:37:47.810Z,15.35
2023-03-26T17:40:55.786Z,15.37
2023-03-26T17:43:58.298Z,15.44
2023-03-26T17:47:00.920Z,15.44
2023-03-26T17:50:11.987Z,15.52
2023-03-26T17:53:24.263Z,15.58
2023-03-26T17:56:29.508Z,15.63
2023-03-26T17:59:32.342Z,15.63
2023-03-26T18:02:39.536Z,15.64
2023-03-26T18:05:42.291Z,15.59
2023-03-26T18:08:59.513Z,15.58
2023-03-26T18:12:32.402Z,15.71
2023-03-26T18:15:56.314Z,15.72
2023-03-26T18:19:06.965Z,15.70
2023-03-26T18:22:18.833Z,15.51
2023-03-26T18:25:30.416Z,15.58
2023-03-26T18:28:35.598Z,15.63
2023-03-26T18:31:41.271Z,15.58
2023-03-26T18:34:50.113Z,15.59
2023-03-26T18:37:56.936Z,15.46
2023-03-26T18:40:59.275Z,15.49
2023-03-26T18:44:03.521Z,15.49
2023-03-26T18:47:07.153Z,15.33
2023-03-26T18:50:15.419Z,15.24
2023-03-26T18:53:25.476Z,15.30
2023-03-26T18:56:32.393Z,15.32
2023-03-26T18:59:41.022Z,15.31
2023-03-26T19:02:44.474Z,15.38
2023-03-26T19:05:46.846Z,15.46
2023-03-26T19:08:49.690Z,15.49
2023-03-26T19:11:57.183Z,15.50
2023-03-26T19:15:06.049Z,15.50
2023-03-26T19:18:14.161Z,15.28
2023-03-26T19:21:18.104Z,14.88
2023-03-26T19:24:21.390Z,14.75
2023-03-26T19:27:24.239Z,14.83
2023-03-26T19:30:35.170Z,14.90
2023-03-26T19:33:40.346Z,14.88
2023-03-26T19:36:59.477Z,14.65
2023-03-26T19:40:30.219Z,14.72
2023-03-26T19:43:32.592Z,14.81
2023-03-26T19:47:47.346Z,14.88
2023-03-26T19:50:01.819Z,14.92
2023-03-26T19:53:16.566Z,14.87
2023-03-26T19:56:20.871Z,14.93
2023-03-26T19:59:23.840Z,14.87
2023-03-26T20:02:26.728Z,14.84
2023-03-26T20:05:34.224Z,14.88
2023-03-26T20:08:36.519Z,14.74
2023-03-26T20:11:40.915Z,14.68
2023-03-26T20:14:45.261Z,14.66
2023-03-26T20:17:50.263Z,14.71
2023-03-26T20:20:54.730Z,14.72
2023-03-26T20:23:57.211Z,14.74
2023-03-26T20:26:59.472Z,14.74
2023-03-26T20:30:01.862Z,14.80
2023-03-26T20:33:12.849Z,14.80
2023-03-26T20:36:34.059Z,14.89
2023-03-26T20:39:37.821Z,14.92
2023-03-26T20:42:41.484Z,14.97
2023-03-26T20:45:45.292Z,15.02
2023-03-26T20:48:47.781Z,15.02
2023-03-26T20:51:50.055Z,14.96
2023-03-26T20:54:52.312Z,14.89
2023-03-26T20:57:55.271Z,14.84
2023-03-26T21:01:00.714Z,14.86
2023-03-26T21:04:04.322Z,14.90
2023-03-26T21:07:17.562Z,14.95
2023-03-26T21:10:21.641Z,14.92
2023-03-26T21:14:05.219Z,14.87
2023-03-26T21:17:14.718Z,14.78
2023-03-26T21:20:21.201Z,14.60
2023-03-26T21:23:31.281Z,14.42
2023-03-26T21:26:57.989Z,14.45
2023-03-26T21:30:00.601Z,14.55
2023-03-26T21:33:05.261Z,14.63
2023-03-26T21:36:08.309Z,14.60
2023-03-26T21:39:11.237Z,14.69
2023-03-26T21:42:13.899Z,14.63
2023-03-26T21:45:17.354Z,14.64
2023-03-26T21:48:20.207Z,14.64
2023-03-26T21:51:22.703Z,14.65
2023-03-26T21:54:27.987Z,14.68
2023-03-26T21:57:44.835Z,14.71
2023-03-26T22:01:09.588Z,14.71
2023-03-26T22:04:18.401Z,14.60
2023-03-26T22:07:30.696Z,14.56
2023-03-26T22:10:32.976Z,14.52
2023-03-26T22:13:38.815Z,14.50
2023-03-26T22:16:41.674Z,14.49
2023-03-26T22:19:44.022Z,14.45
2023-03-26T22:22:48.754Z,14.45
2023-03-26T22:25:51.533Z,14.38
2023-03-26T22:28:53.763Z,14.21
2023-03-26T22:31:56.052Z,14.16
2023-03-26T22:34:58.356Z,14.05
2023-03-26T22:38:01.279Z,13.85
2023-03-26T22:41:03.815Z,13.85
2023-03-26T22:44:19.219Z,13.85
2023-03-26T22:47:22.752Z,13.86
2023-03-26T22:50:25.925Z,13.89
2023-03-26T22:53:28.718Z,13.88
2023-03-26T22:56:30.966Z,13.84
2023-03-26T22:59:33.207Z,13.76
2023-03-26T23:02:35.794Z,13.72
2023-03-26T23:05:38.090Z,13.72
2023-03-26T23:08:40.918Z,13.69
2023-03-26T23:11:43.204Z,13.65
2023-03-26T23:14:45.487Z,13.55
2023-03-26T23:17:54.415Z,13.38
2023-03-26T23:20:57.926Z,13.33
2023-03-26T23:24:00.472Z,13.20
2023-03-26T23:27:03.534Z,13.07
2023-03-26T23:30:05.950Z,13.10
2023-03-26T23:33:09.039Z,12.98
2023-03-26T23:36:12.573Z,12.90
2023-03-26T23:39:14.785Z,12.74
2023-03-26T23:42:17.362Z,12.62
2023-03-26T23:45:31.131Z,12.61
2023-03-26T23:48:33.391Z,12.66
2023-03-26T23:51:36.677Z,12.68
2023-03-26T23:54:39.062Z,12.70
2023-03-26T23:57:43.460Z,12.74
